sensor_id;sensor_type;location;lat;lon;timestamp;pressure;altitude;pressure_sealevel;temperature;humidity
12536;BME280;6334;48.696;2.114;2024-01-10T00:00:21;100809.77;;;-0.16;70.76
12536;BME280;6334;48.696;2.114;2024-01-10T00:02:53;100810.64;;;-0.55;71.51
12536;BME280;6334;48.696;2.114;2024-01-10T00:05:23;100810.16;;;0.09;70.53
12536;BME280;6334;48.696;2.114;2024-01-10T00:07:53;100806.09;;;-0.02;70.34
12536;BME280;6334;48.696;2.114;2024-01-10T00:10:23;100804.52;;;-0.03;71.01
12536;BME280;6334;48.696;2.114;2024-01-10T00:12:54;100805.19;;;-0.06;70.71
12536;BME280;6334;48.696;2.114;2024-01-10T00:15:24;100806.05;;;0.14;71.10
12536;BME280;6334;48.696;2.114;2024-01-10T00:17:55;100801.00;;;-0.22;70.22
12536;BME280;6334;48.696;2.114;2024-01-10T00:20:25;100807.95;;;-0.42;69.73
12536;BME280;6334;48.696;2.114;2024-01-10T00:22:55;100806.55;;;-0.31;71.08
12536;BME280;6334;48.696;2.114;2024-01-10T00:25:24;100800.44;;;-0.90;72.53
12536;BME280;6334;48.696;2.114;2024-01-10T00:27:55;100802.25;;;-0.28;71.12
12536;BME280;6334;48.696;2.114;2024-01-10T00:30:25;100794.70;;;-0.18;70.50
12536;BME280;6334;48.696;2.114;2024-01-10T00:32:56;100797.31;;;-0.84;71.92
12536;BME280;6334;48.696;2.114;2024-01-10T00:35:26;100791.49;;;-0.43;71.11
12536;BME280;6334;48.696;2.114;2024-01-10T00:37:57;100798.25;;;-0.19;70.74
12536;BME280;6334;48.696;2.114;2024-01-10T00:40:27;100797.95;;;0.08;70.99
12536;BME280;6334;48.696;2.114;2024-01-10T00:42:58;100796.35;;;0.00;71.26
12536;BME280;6334;48.696;2.114;2024-01-10T00:45:28;100796.69;;;-0.23;70.41
12536;BME280;6334;48.696;2.114;2024-01-10T00:47:59;100793.39;;;-0.53;71.35
12536;BME280;6334;48.696;2.114;2024-01-10T00:50:29;100788.22;;;-0.07;71.14
12536;BME280;6334;48.696;2.114;2024-01-10T00:53:00;100792.25;;;0.07;71.63
12536;BME280;6334;48.696;2.114;2024-01-10T00:55:30;100797.64;;;-0.46;71.41
12536;BME280;6334;48.696;2.114;2024-01-10T00:58:00;100795.53;;;-0.12;71.85
12536;BME280;6334;48.696;2.114;2024-01-10T01:00:31;100791.81;;;-0.43;71.94
12536;BME280;6334;48.696;2.114;2024-01-10T01:03:00;100791.19;;;-0.20;71.73
12536;BME280;6334;48.696;2.114;2024-01-10T01:05:31;100793.45;;;0.14;71.47
12536;BME280;6334;48.696;2.114;2024-01-10T01:08:01;100790.88;;;-0.06;71.63
12536;BME280;6334;48.696;2.114;2024-01-10T01:10:33;100791.02;;;-0.05;71.30
12536;BME280;6334;48.696;2.114;2024-01-10T01:13:03;100788.39;;;-0.09;70.05
12536;BME280;6334;48.696;2.114;2024-01-10T01:15:34;100786.86;;;-0.20;70.91
12536;BME280;6334;48.696;2.114;2024-01-10T01:18:04;100786.80;;;0.17;70.92
12536;BME280;6334;48.696;2.114;2024-01-10T01:20:35;100785.77;;;0.03;71.14
12536;BME280;6334;48.696;2.114;2024-01-10T01:23:05;100777.39;;;0.33;70.54
12536;BME280;6334;48.696;2.114;2024-01-10T01:25:36;100776.06;;;0.26;70.42
12536;BME280;6334;48.696;2.114;2024-01-10T01:28:07;100775.97;;;-0.01;70.55
12536;BME280;6334;48.696;2.114;2024-01-10T01:30:37;100771.88;;;0.32;70.71
12536;BME280;6334;48.696;2.114;2024-01-10T01:33:07;100772.17;;;0.26;70.68
12536;BME280;6334;48.696;2.114;2024-01-10T01:35:38;100776.08;;;0.25;71.28
12536;BME280;6334;48.696;2.114;2024-01-10T01:38:08;100779.41;;;0.09;71.92
12536;BME280;6334;48.696;2.114;2024-01-10T01:40:39;100775.59;;;0.15;71.56
12536;BME280;6334;48.696;2.114;2024-01-10T01:43:22;100778.63;;;0.29;70.82
12536;BME280;6334;48.696;2.114;2024-01-10T01:45:52;100779.68;;;0.37;70.59
12536;BME280;6334;48.696;2.114;2024-01-10T01:48:17;100775.05;;;0.44;71.22
12536;BME280;6334;48.696;2.114;2024-01-10T01:50:47;100784.38;;;0.10;71.73
12536;BME280;6334;48.696;2.114;2024-01-10T01:53:18;100778.34;;;0.36;70.25
12536;BME280;6334;48.696;2.114;2024-01-10T01:55:48;100775.66;;;0.43;71.47
12536;BME280;6334;48.696;2.114;2024-01-10T01:58:18;100777.07;;;0.19;71.23
12536;BME280;6334;48.696;2.114;2024-01-10T02:00:49;100776.41;;;0.21;70.75
12536;BME280;6334;48.696;2.114;2024-01-10T02:03:19;100780.63;;;0.13;71.11
12536;BME280;6334;48.696;2.114;2024-01-10T02:05:50;100773.25;;;0.12;71.01
12536;BME280;6334;48.696;2.114;2024-01-10T02:08:20;100768.86;;;0.35;70.57
12536;BME280;6334;48.696;2.114;2024-01-10T02:10:51;100766.70;;;0.24;71.66
12536;BME280;6334;48.696;2.114;2024-01-10T02:13:21;100769.23;;;0.02;71.16
12536;BME280;6334;48.696;2.114;2024-01-10T02:15:52;100772.08;;;0.17;70.57
12536;BME280;6334;48.696;2.114;2024-01-10T02:18:22;100763.14;;;0.27;70.71
12536;BME280;6334;48.696;2.114;2024-01-10T02:20:53;100763.79;;;-0.03;71.88
12536;BME280;6334;48.696;2.114;2024-01-10T02:23:23;100757.73;;;0.28;71.04
12536;BME280;6334;48.696;2.114;2024-01-10T02:25:53;100761.08;;;0.13;72.36
12536;BME280;6334;48.696;2.114;2024-01-10T02:28:25;100762.95;;;0.08;70.82
12536;BME280;6334;48.696;2.114;2024-01-10T02:30:56;100756.31;;;0.20;71.44
12536;BME280;6334;48.696;2.114;2024-01-10T02:33:26;100753.83;;;0.23;71.36
12536;BME280;6334;48.696;2.114;2024-01-10T02:35:57;100756.38;;;0.22;70.66
12536;BME280;6334;48.696;2.114;2024-01-10T02:38:27;100755.53;;;0.05;71.54
12536;BME280;6334;48.696;2.114;2024-01-10T02:40:57;100752.59;;;0.25;71.69
12536;BME280;6334;48.696;2.114;2024-01-10T02:43:27;100763.28;;;0.36;71.05
12536;BME280;6334;48.696;2.114;2024-01-10T02:45:58;100759.56;;;0.17;71.17
12536;BME280;6334;48.696;2.114;2024-01-10T02:48:28;100749.48;;;0.35;70.01
12536;BME280;6334;48.696;2.114;2024-01-10T02:50:59;100743.61;;;0.21;70.79
12536;BME280;6334;48.696;2.114;2024-01-10T02:53:29;100751.16;;;0.04;71.01
12536;BME280;6334;48.696;2.114;2024-01-10T02:56:00;100747.70;;;0.22;71.07
12536;BME280;6334;48.696;2.114;2024-01-10T02:58:30;100751.63;;;0.25;73.02
12536;BME280;6334;48.696;2.114;2024-01-10T03:01:00;100747.61;;;0.32;70.72
12536;BME280;6334;48.696;2.114;2024-01-10T03:03:30;100752.95;;;0.42;70.49
12536;BME280;6334;48.696;2.114;2024-01-10T03:06:00;100749.66;;;0.25;71.31
12536;BME280;6334;48.696;2.114;2024-01-10T03:08:30;100748.93;;;0.13;71.47
12536;BME280;6334;48.696;2.114;2024-01-10T03:11:00;100752.20;;;0.13;72.13
12536;BME280;6334;48.696;2.114;2024-01-10T03:13:31;100746.84;;;-0.05;73.47
12536;BME280;6334;48.696;2.114;2024-01-10T03:16:01;100747.79;;;0.12;71.77
12536;BME280;6334;48.696;2.114;2024-01-10T03:18:32;100745.53;;;0.05;72.60
12536;BME280;6334;48.696;2.114;2024-01-10T03:21:02;100749.27;;;0.20;71.94
12536;BME280;6334;48.696;2.114;2024-01-10T03:23:33;100748.79;;;0.18;71.88
12536;BME280;6334;48.696;2.114;2024-01-10T03:26:03;100749.17;;;-0.10;72.68
12536;BME280;6334;48.696;2.114;2024-01-10T03:28:34;100737.00;;;-0.23;71.86
12536;BME280;6334;48.696;2.114;2024-01-10T03:31:04;100735.44;;;0.12;72.27
12536;BME280;6334;48.696;2.114;2024-01-10T03:33:34;100745.97;;;0.27;72.01
12536;BME280;6334;48.696;2.114;2024-01-10T03:36:05;100742.58;;;0.34;72.42
12536;BME280;6334;48.696;2.114;2024-01-10T03:38:35;100745.82;;;0.13;71.81
12536;BME280;6334;48.696;2.114;2024-01-10T03:41:05;100742.27;;;0.33;72.21
12536;BME280;6334;48.696;2.114;2024-01-10T03:43:36;100741.28;;;0.28;71.84
12536;BME280;6334;48.696;2.114;2024-01-10T03:46:07;100733.47;;;0.09;72.53
12536;BME280;6334;48.696;2.114;2024-01-10T03:48:38;100724.83;;;-0.04;71.96
12536;BME280;6334;48.696;2.114;2024-01-10T03:51:08;100738.37;;;0.24;72.05
12536;BME280;6334;48.696;2.114;2024-01-10T03:53:38;100737.15;;;-0.17;72.20
12536;BME280;6334;48.696;2.114;2024-01-10T03:56:09;100732.19;;;0.00;71.95
12536;BME280;6334;48.696;2.114;2024-01-10T03:58:40;100734.55;;;0.18;72.50
12536;BME280;6334;48.696;2.114;2024-01-10T04:01:10;100730.62;;;0.08;71.92
12536;BME280;6334;48.696;2.114;2024-01-10T04:03:42;100729.28;;;0.30;71.32
12536;BME280;6334;48.696;2.114;2024-01-10T04:06:12;100737.58;;;-0.21;72.57
12536;BME280;6334;48.696;2.114;2024-01-10T04:08:43;100729.78;;;0.15;72.00
12536;BME280;6334;48.696;2.114;2024-01-10T04:11:13;100731.22;;;0.09;72.45
12536;BME280;6334;48.696;2.114;2024-01-10T04:13:44;100726.75;;;-0.12;72.01
12536;BME280;6334;48.696;2.114;2024-01-10T04:16:14;100733.83;;;0.05;72.77
12536;BME280;6334;48.696;2.114;2024-01-10T04:18:45;100731.13;;;0.33;71.95
12536;BME280;6334;48.696;2.114;2024-01-10T04:21:15;100731.81;;;-0.01;71.94
12536;BME280;6334;48.696;2.114;2024-01-10T04:23:46;100730.48;;;0.07;71.37
12536;BME280;6334;48.696;2.114;2024-01-10T04:26:16;100733.20;;;0.23;72.26
12536;BME280;6334;48.696;2.114;2024-01-10T04:28:47;100729.58;;;-0.01;71.48
12536;BME280;6334;48.696;2.114;2024-01-10T04:31:17;100730.17;;;0.21;71.48
12536;BME280;6334;48.696;2.114;2024-01-10T04:33:48;100735.23;;;0.01;71.32
12536;BME280;6334;48.696;2.114;2024-01-10T04:36:18;100731.35;;;0.16;72.31
12536;BME280;6334;48.696;2.114;2024-01-10T04:38:49;100737.73;;;-0.19;71.81
12536;BME280;6334;48.696;2.114;2024-01-10T04:41:19;100731.86;;;0.08;72.60
12536;BME280;6334;48.696;2.114;2024-01-10T04:43:50;100732.56;;;0.19;71.42
12536;BME280;6334;48.696;2.114;2024-01-10T04:46:20;100734.38;;;0.24;71.75
12536;BME280;6334;48.696;2.114;2024-01-10T04:48:50;100729.26;;;0.26;71.78
12536;BME280;6334;48.696;2.114;2024-01-10T04:51:22;100730.22;;;0.19;71.05
12536;BME280;6334;48.696;2.114;2024-01-10T04:53:52;100733.23;;;0.22;71.71
12536;BME280;6334;48.696;2.114;2024-01-10T04:56:23;100730.43;;;0.23;71.68
12536;BME280;6334;48.696;2.114;2024-01-10T04:58:53;100732.36;;;-0.36;72.67
12536;BME280;6334;48.696;2.114;2024-01-10T05:01:24;100726.42;;;0.25;71.93
12536;BME280;6334;48.696;2.114;2024-01-10T05:03:54;100726.39;;;0.28;71.17
12536;BME280;6334;48.696;2.114;2024-01-10T05:06:24;100719.39;;;0.22;71.34
12536;BME280;6334;48.696;2.114;2024-01-10T05:08:54;100721.57;;;-0.45;71.58
12536;BME280;6334;48.696;2.114;2024-01-10T05:11:25;100712.07;;;0.26;71.47
12536;BME280;6334;48.696;2.114;2024-01-10T05:13:55;100708.95;;;0.39;71.74
12536;BME280;6334;48.696;2.114;2024-01-10T05:16:26;100711.09;;;0.52;71.39
12536;BME280;6334;48.696;2.114;2024-01-10T05:18:56;100708.45;;;0.10;72.14
12536;BME280;6334;48.696;2.114;2024-01-10T05:21:27;100711.00;;;0.35;71.00
12536;BME280;6334;48.696;2.114;2024-01-10T05:23:57;100708.48;;;0.31;71.19
12536;BME280;6334;48.696;2.114;2024-01-10T05:26:28;100708.69;;;0.40;71.27
12536;BME280;6334;48.696;2.114;2024-01-10T05:28:58;100708.08;;;0.45;70.53
12536;BME280;6334;48.696;2.114;2024-01-10T05:31:29;100702.02;;;-0.01;71.43
12536;BME280;6334;48.696;2.114;2024-01-10T05:33:59;100704.75;;;0.40;71.90
12536;BME280;6334;48.696;2.114;2024-01-10T05:36:30;100704.33;;;0.58;71.17
12536;BME280;6334;48.696;2.114;2024-01-10T05:39:00;100699.36;;;0.40;70.57
12536;BME280;6334;48.696;2.114;2024-01-10T05:41:30;100700.55;;;0.32;70.93
12536;BME280;6334;48.696;2.114;2024-01-10T05:44:01;100697.23;;;0.45;71.58
12536;BME280;6334;48.696;2.114;2024-01-10T05:46:31;100688.08;;;0.51;71.52
12536;BME280;6334;48.696;2.114;2024-01-10T05:49:02;100687.65;;;0.22;71.75
12536;BME280;6334;48.696;2.114;2024-01-10T05:51:32;100690.94;;;-0.06;71.58
12536;BME280;6334;48.696;2.114;2024-01-10T05:54:03;100687.78;;;0.52;70.99
12536;BME280;6334;48.696;2.114;2024-01-10T05:56:33;100691.12;;;0.47;72.36
12536;BME280;6334;48.696;2.114;2024-01-10T05:59:04;100692.79;;;0.17;71.47
12536;BME280;6334;48.696;2.114;2024-01-10T06:01:34;100693.36;;;0.42;72.09
12536;BME280;6334;48.696;2.114;2024-01-10T06:04:07;100690.77;;;0.57;72.55
12536;BME280;6334;48.696;2.114;2024-01-10T06:06:38;100691.05;;;0.50;72.45
12536;BME280;6334;48.696;2.114;2024-01-10T06:09:08;100686.19;;;0.41;71.74
12536;BME280;6334;48.696;2.114;2024-01-10T06:11:41;100687.59;;;0.49;71.89
12536;BME280;6334;48.696;2.114;2024-01-10T06:14:12;100681.24;;;0.48;71.37
12536;BME280;6334;48.696;2.114;2024-01-10T06:16:43;100681.56;;;0.63;72.48
12536;BME280;6334;48.696;2.114;2024-01-10T06:19:13;100675.78;;;0.55;72.28
12536;BME280;6334;48.696;2.114;2024-01-10T06:21:43;100679.30;;;0.57;71.04
12536;BME280;6334;48.696;2.114;2024-01-10T06:24:14;100678.64;;;0.55;70.72
12536;BME280;6334;48.696;2.114;2024-01-10T06:26:44;100685.19;;;0.72;70.85
12536;BME280;6334;48.696;2.114;2024-01-10T06:29:15;100680.73;;;0.65;70.90
12536;BME280;6334;48.696;2.114;2024-01-10T06:31:45;100685.97;;;0.66;71.81
12536;BME280;6334;48.696;2.114;2024-01-10T06:34:16;100683.05;;;0.61;72.36
12536;BME280;6334;48.696;2.114;2024-01-10T06:36:46;100686.50;;;0.26;72.03
12536;BME280;6334;48.696;2.114;2024-01-10T06:39:16;100692.02;;;0.49;71.81
12536;BME280;6334;48.696;2.114;2024-01-10T06:41:47;100688.02;;;0.50;71.41
12536;BME280;6334;48.696;2.114;2024-01-10T06:44:17;100685.59;;;0.57;71.51
12536;BME280;6334;48.696;2.114;2024-01-10T06:46:48;100685.52;;;0.40;70.94
12536;BME280;6334;48.696;2.114;2024-01-10T06:49:18;100687.17;;;0.96;76.59
12536;BME280;6334;48.696;2.114;2024-01-10T06:51:49;100690.87;;;0.54;71.94
12536;BME280;6334;48.696;2.114;2024-01-10T06:54:18;100691.95;;;0.25;71.53
12536;BME280;6334;48.696;2.114;2024-01-10T06:56:48;100686.11;;;0.41;71.23
12536;BME280;6334;48.696;2.114;2024-01-10T06:59:18;100691.52;;;0.32;71.77
12536;BME280;6334;48.696;2.114;2024-01-10T07:01:52;100691.63;;;0.33;71.63
12536;BME280;6334;48.696;2.114;2024-01-10T07:04:22;100692.88;;;0.61;70.93
12536;BME280;6334;48.696;2.114;2024-01-10T07:06:52;100689.53;;;0.57;71.24
12536;BME280;6334;48.696;2.114;2024-01-10T07:09:22;100693.16;;;0.94;79.63
12536;BME280;6334;48.696;2.114;2024-01-10T07:11:52;100697.74;;;0.88;73.64
12536;BME280;6334;48.696;2.114;2024-01-10T07:14:22;100697.86;;;0.44;71.80
12536;BME280;6334;48.696;2.114;2024-01-10T07:16:53;100692.08;;;0.18;71.95
12536;BME280;6334;48.696;2.114;2024-01-10T07:19:36;100695.58;;;0.22;71.71
12536;BME280;6334;48.696;2.114;2024-01-10T07:22:06;100701.14;;;0.61;71.04
12536;BME280;6334;48.696;2.114;2024-01-10T07:24:36;100701.65;;;0.45;71.05
12536;BME280;6334;48.696;2.114;2024-01-10T07:27:07;100703.33;;;0.62;70.83
12536;BME280;6334;48.696;2.114;2024-01-10T07:29:38;100701.69;;;0.45;70.56
12536;BME280;6334;48.696;2.114;2024-01-10T07:32:09;100699.63;;;0.35;72.24
12536;BME280;6334;48.696;2.114;2024-01-10T07:34:38;100697.27;;;0.50;71.44
12536;BME280;6334;48.696;2.114;2024-01-10T07:37:08;100701.88;;;0.19;71.20
12536;BME280;6334;48.696;2.114;2024-01-10T07:39:40;100703.45;;;0.62;71.50
12536;BME280;6334;48.696;2.114;2024-01-10T07:42:09;100701.50;;;0.04;71.39
12536;BME280;6334;48.696;2.114;2024-01-10T07:44:39;100703.81;;;0.31;70.98
12536;BME280;6334;48.696;2.114;2024-01-10T07:47:10;100710.71;;;0.21;71.06
12536;BME280;6334;48.696;2.114;2024-01-10T07:49:40;100705.82;;;0.55;70.03
12536;BME280;6334;48.696;2.114;2024-01-10T07:52:11;100710.49;;;0.55;70.73
12536;BME280;6334;48.696;2.114;2024-01-10T07:54:41;100709.48;;;0.60;71.51
12536;BME280;6334;48.696;2.114;2024-01-10T07:57:11;100714.85;;;0.33;71.11
12536;BME280;6334;48.696;2.114;2024-01-10T07:59:42;100713.40;;;0.50;71.99
12536;BME280;6334;48.696;2.114;2024-01-10T08:02:13;100707.19;;;0.67;71.88
12536;BME280;6334;48.696;2.114;2024-01-10T08:04:44;100718.83;;;0.65;71.47
12536;BME280;6334;48.696;2.114;2024-01-10T08:07:14;100717.44;;;0.38;73.03
12536;BME280;6334;48.696;2.114;2024-01-10T08:09:43;100720.56;;;0.55;70.32
12536;BME280;6334;48.696;2.114;2024-01-10T08:12:13;100721.83;;;0.48;71.02
12536;BME280;6334;48.696;2.114;2024-01-10T08:14:42;100719.63;;;0.50;70.33
12536;BME280;6334;48.696;2.114;2024-01-10T08:17:13;100726.73;;;0.47;70.24
12536;BME280;6334;48.696;2.114;2024-01-10T08:19:42;100724.25;;;0.57;69.46
12536;BME280;6334;48.696;2.114;2024-01-10T08:22:12;100726.88;;;0.79;69.57
12536;BME280;6334;48.696;2.114;2024-01-10T08:24:42;100728.48;;;0.48;69.16
12536;BME280;6334;48.696;2.114;2024-01-10T08:27:11;100731.23;;;0.49;70.61
12536;BME280;6334;48.696;2.114;2024-01-10T08:29:41;100731.82;;;0.64;69.36
12536;BME280;6334;48.696;2.114;2024-01-10T08:32:11;100732.06;;;0.25;69.16
12536;BME280;6334;48.696;2.114;2024-01-10T08:34:40;100732.01;;;0.65;68.65
12536;BME280;6334;48.696;2.114;2024-01-10T08:37:10;100733.05;;;0.62;69.17
12536;BME280;6334;48.696;2.114;2024-01-10T08:39:39;100732.86;;;0.56;68.70
12536;BME280;6334;48.696;2.114;2024-01-10T08:42:09;100735.39;;;0.55;68.93
12536;BME280;6334;48.696;2.114;2024-01-10T08:44:38;100725.95;;;0.49;69.46
12536;BME280;6334;48.696;2.114;2024-01-10T08:47:09;100735.02;;;0.54;68.90
12536;BME280;6334;48.696;2.114;2024-01-10T08:49:39;100733.20;;;0.68;67.44
12536;BME280;6334;48.696;2.114;2024-01-10T08:52:08;100736.78;;;0.76;67.92
12536;BME280;6334;48.696;2.114;2024-01-10T08:54:38;100731.25;;;0.79;68.36
12536;BME280;6334;48.696;2.114;2024-01-10T08:57:07;100735.92;;;0.46;67.45
12536;BME280;6334;48.696;2.114;2024-01-10T08:59:40;100736.23;;;0.54;66.92
12536;BME280;6334;48.696;2.114;2024-01-10T09:02:06;100736.24;;;0.71;66.94
12536;BME280;6334;48.696;2.114;2024-01-10T09:04:36;100735.67;;;0.69;67.34
12536;BME280;6334;48.696;2.114;2024-01-10T09:07:06;100741.28;;;0.57;66.68
12536;BME280;6334;48.696;2.114;2024-01-10T09:09:35;100735.42;;;0.69;66.61
12536;BME280;6334;48.696;2.114;2024-01-10T09:12:05;100736.70;;;0.93;67.02
12536;BME280;6334;48.696;2.114;2024-01-10T09:14:34;100742.63;;;0.99;66.49
12536;BME280;6334;48.696;2.114;2024-01-10T09:17:04;100738.47;;;0.42;65.77
12536;BME280;6334;48.696;2.114;2024-01-10T09:19:34;100744.80;;;0.76;65.92
12536;BME280;6334;48.696;2.114;2024-01-10T09:22:04;100743.91;;;1.02;67.75
12536;BME280;6334;48.696;2.114;2024-01-10T09:24:34;100745.87;;;0.91;66.50
12536;BME280;6334;48.696;2.114;2024-01-10T09:27:04;100748.43;;;1.02;65.53
12536;BME280;6334;48.696;2.114;2024-01-10T09:29:34;100747.59;;;1.16;66.30
12536;BME280;6334;48.696;2.114;2024-01-10T09:32:04;100754.72;;;1.09;66.50
12536;BME280;6334;48.696;2.114;2024-01-10T09:34:34;100750.81;;;1.13;65.77
12536;BME280;6334;48.696;2.114;2024-01-10T09:37:04;100751.34;;;1.05;65.25
12536;BME280;6334;48.696;2.114;2024-01-10T09:39:34;100751.94;;;1.04;66.89
12536;BME280;6334;48.696;2.114;2024-01-10T09:42:04;100759.27;;;0.80;67.06
12536;BME280;6334;48.696;2.114;2024-01-10T09:44:34;100752.37;;;0.85;65.38
12536;BME280;6334;48.696;2.114;2024-01-10T09:47:03;100754.06;;;0.76;65.13
12536;BME280;6334;48.696;2.114;2024-01-10T09:49:33;100754.06;;;0.72;65.61
12536;BME280;6334;48.696;2.114;2024-01-10T09:52:04;100754.67;;;1.01;64.94
12536;BME280;6334;48.696;2.114;2024-01-10T09:54:35;100750.77;;;1.24;63.70
12536;BME280;6334;48.696;2.114;2024-01-10T09:57:05;100757.64;;;1.12;64.49
12536;BME280;6334;48.696;2.114;2024-01-10T09:59:34;100755.54;;;0.89;65.04
12536;BME280;6334;48.696;2.114;2024-01-10T10:02:04;100754.88;;;1.35;64.31
12536;BME280;6334;48.696;2.114;2024-01-10T10:04:35;100756.78;;;1.44;66.16
12536;BME280;6334;48.696;2.114;2024-01-10T10:07:04;100758.56;;;1.58;64.98
12536;BME280;6334;48.696;2.114;2024-01-10T10:09:35;100746.30;;;1.42;65.03
12536;BME280;6334;48.696;2.114;2024-01-10T10:12:04;100757.16;;;1.57;64.58
12536;BME280;6334;48.696;2.114;2024-01-10T10:14:34;100755.00;;;1.49;64.89
12536;BME280;6334;48.696;2.114;2024-01-10T10:17:16;100755.55;;;1.55;63.44
12536;BME280;6334;48.696;2.114;2024-01-10T10:19:45;100755.66;;;1.49;64.34
12536;BME280;6334;48.696;2.114;2024-01-10T10:22:15;100754.36;;;1.45;63.05
12536;BME280;6334;48.696;2.114;2024-01-10T10:24:47;100750.26;;;1.45;63.93
12536;BME280;6334;48.696;2.114;2024-01-10T10:27:14;100755.45;;;1.62;63.70
12536;BME280;6334;48.696;2.114;2024-01-10T10:29:43;100754.55;;;1.64;63.51
12536;BME280;6334;48.696;2.114;2024-01-10T10:32:13;100750.77;;;1.67;63.90
12536;BME280;6334;48.696;2.114;2024-01-10T10:34:43;100753.05;;;1.50;63.52
12536;BME280;6334;48.696;2.114;2024-01-10T10:37:12;100753.03;;;1.72;64.53
12536;BME280;6334;48.696;2.114;2024-01-10T10:39:42;100750.34;;;1.59;64.00
12536;BME280;6334;48.696;2.114;2024-01-10T10:42:11;100747.19;;;1.60;63.26
12536;BME280;6334;48.696;2.114;2024-01-10T10:44:42;100745.09;;;1.27;62.11
12536;BME280;6334;48.696;2.114;2024-01-10T10:47:12;100741.47;;;1.38;63.44
12536;BME280;6334;48.696;2.114;2024-01-10T10:49:47;100737.63;;;1.47;63.30
12536;BME280;6334;48.696;2.114;2024-01-10T10:52:14;100740.12;;;1.19;63.50
12536;BME280;6334;48.696;2.114;2024-01-10T10:54:44;100740.58;;;1.41;63.91
12536;BME280;6334;48.696;2.114;2024-01-10T10:57:14;100739.36;;;1.50;62.87
12536;BME280;6334;48.696;2.114;2024-01-10T10:59:43;100740.20;;;1.62;63.12
12536;BME280;6334;48.696;2.114;2024-01-10T11:02:13;100738.98;;;1.81;63.11
12536;BME280;6334;48.696;2.114;2024-01-10T11:04:43;100734.59;;;1.50;63.82
12536;BME280;6334;48.696;2.114;2024-01-10T11:07:12;100737.10;;;1.69;62.14
12536;BME280;6334;48.696;2.114;2024-01-10T11:09:42;100729.30;;;1.62;62.41
12536;BME280;6334;48.696;2.114;2024-01-10T11:12:17;100731.01;;;1.45;63.24
12536;BME280;6334;48.696;2.114;2024-01-10T11:25:59;100711.58;;;1.84;61.84
12536;BME280;6334;48.696;2.114;2024-01-10T11:28:31;100707.83;;;1.79;63.02
12536;BME280;6334;48.696;2.114;2024-01-10T11:31:01;100715.75;;;1.64;62.00
12536;BME280;6334;48.696;2.114;2024-01-10T11:33:31;100714.95;;;1.91;62.40
12536;BME280;6334;48.696;2.114;2024-01-10T11:36:15;100718.76;;;1.86;63.27
12536;BME280;6334;48.696;2.114;2024-01-10T11:41:29;100711.20;;;2.01;60.38
12536;BME280;6334;48.696;2.114;2024-01-10T11:49:12;100705.94;;;1.96;60.62
12536;BME280;6334;48.696;2.114;2024-01-10T11:51:47;100708.46;;;1.91;61.00
12536;BME280;6334;48.696;2.114;2024-01-10T11:56:43;100711.08;;;1.97;62.52
12536;BME280;6334;48.696;2.114;2024-01-10T11:59:15;100707.67;;;1.67;62.16
12536;BME280;6334;48.696;2.114;2024-01-10T12:01:45;100699.57;;;1.92;60.79
12536;BME280;6334;48.696;2.114;2024-01-10T12:04:14;100696.03;;;1.92;61.11
12536;BME280;6334;48.696;2.114;2024-01-10T12:06:44;100694.02;;;1.98;60.74
12536;BME280;6334;48.696;2.114;2024-01-10T12:09:14;100693.99;;;2.14;61.12
12536;BME280;6334;48.696;2.114;2024-01-10T12:11:43;100696.09;;;2.06;61.42
12536;BME280;6334;48.696;2.114;2024-01-10T12:14:13;100689.78;;;2.83;77.18
12536;BME280;6334;48.696;2.114;2024-01-10T12:16:44;100689.22;;;2.17;61.77
12536;BME280;6334;48.696;2.114;2024-01-10T12:19:15;100692.54;;;2.16;61.79
12536;BME280;6334;48.696;2.114;2024-01-10T12:21:46;100694.87;;;2.01;62.96
12536;BME280;6334;48.696;2.114;2024-01-10T12:24:18;100691.36;;;2.02;59.88
12536;BME280;6334;48.696;2.114;2024-01-10T12:26:49;100684.97;;;1.78;61.23
12536;BME280;6334;48.696;2.114;2024-01-10T12:29:22;100687.59;;;2.67;69.21
12536;BME280;6334;48.696;2.114;2024-01-10T12:31:53;100686.63;;;2.33;63.06
12536;BME280;6334;48.696;2.114;2024-01-10T12:34:25;100685.47;;;1.82;61.51
12536;BME280;6334;48.696;2.114;2024-01-10T12:36:55;100678.88;;;1.94;61.46
12536;BME280;6334;48.696;2.114;2024-01-10T12:39:26;100673.53;;;2.04;60.73
12536;BME280;6334;48.696;2.114;2024-01-10T12:41:56;100670.21;;;1.93;60.98
12536;BME280;6334;48.696;2.114;2024-01-10T12:44:30;100665.13;;;1.90;63.17
12536;BME280;6334;48.696;2.114;2024-01-10T12:46:58;100658.38;;;1.70;62.19
12536;BME280;6334;48.696;2.114;2024-01-10T12:49:28;100661.53;;;2.06;62.39
12536;BME280;6334;48.696;2.114;2024-01-10T12:52:00;100658.08;;;1.98;61.61
12536;BME280;6334;48.696;2.114;2024-01-10T12:54:30;100663.58;;;2.18;62.00
12536;BME280;6334;48.696;2.114;2024-01-10T12:57:01;100661.70;;;1.81;60.85
12536;BME280;6334;48.696;2.114;2024-01-10T12:59:32;100658.59;;;1.41;61.43
12536;BME280;6334;48.696;2.114;2024-01-10T13:02:03;100661.31;;;2.04;60.99
12536;BME280;6334;48.696;2.114;2024-01-10T13:04:32;100659.23;;;2.26;61.62
12536;BME280;6334;48.696;2.114;2024-01-10T13:07:03;100659.11;;;1.62;61.04
12536;BME280;6334;48.696;2.114;2024-01-10T13:09:42;100659.10;;;1.79;63.13
12536;BME280;6334;48.696;2.114;2024-01-10T13:13:00;100653.84;;;1.81;61.96
12536;BME280;6334;48.696;2.114;2024-01-10T13:15:30;100658.48;;;1.90;62.83
12536;BME280;6334;48.696;2.114;2024-01-10T13:18:03;100651.44;;;1.83;63.04
12536;BME280;6334;48.696;2.114;2024-01-10T13:20:34;100649.00;;;1.57;62.77
12536;BME280;6334;48.696;2.114;2024-01-10T13:23:05;100650.33;;;1.43;62.09
12536;BME280;6334;48.696;2.114;2024-01-10T13:25:36;100647.57;;;1.41;61.50
12536;BME280;6334;48.696;2.114;2024-01-10T13:28:09;100654.76;;;1.52;62.33
12536;BME280;6334;48.696;2.114;2024-01-10T13:30:38;100654.50;;;1.38;61.94
12536;BME280;6334;48.696;2.114;2024-01-10T13:33:26;100656.62;;;1.50;61.84
12536;BME280;6334;48.696;2.114;2024-01-10T13:40:38;100653.91;;;1.71;61.69
12536;BME280;6334;48.696;2.114;2024-01-10T13:43:09;100657.02;;;1.90;62.03
12536;BME280;6334;48.696;2.114;2024-01-10T13:45:40;100656.56;;;1.79;62.66
12536;BME280;6334;48.696;2.114;2024-01-10T13:48:10;100652.53;;;1.93;63.33
12536;BME280;6334;48.696;2.114;2024-01-10T13:53:14;100651.27;;;1.98;61.36
12536;BME280;6334;48.696;2.114;2024-01-10T13:55:44;100652.01;;;1.98;61.40